Thunder radar more information blitzortung!


Radar de pluja more information rain snow radar


Visita la nostra xarxa de llocs de meteo:

Template documentation
and downloads

And another site



No particular awareness of the weather is required.    There are no Weather-warnings

Pagina Historial Weather Underground text

Diari Resum January 29, 2018 Unitats:  Mètric    Imperial   Tant
« Previous Dia
SegĂźent Dia »
Diari Setmana Mensual Anual Personalitzada
  Maxima: Minima: Media:
Temperatura: -17.8 °C -15.7 °C -11.9 °C
Punt de rosada: -17.8 °C -17.7 °C -15.8 °C
Humitat: Humidity % 52 % 63 %
Wind Speed: 0 km/h 0 km/h 6.1 km/h
RĂ fegues de vent: 0 km/h - -
Vent:- - NNE
Pression baro: 0 hPa 34899.5 hPa -
Precipitacions: 0 mm    
Historical Graphs
 
 
Dades de taula per January 29, 2018
Temps Temperatura Punt de rosada Pression baro Vent Wind Speed RĂ fegues de vent Humitat Rainfall Rate (Hourly)
-17.8 °C -17.8 °C 0 hPa Calm     Humidity % 0 mm
00:00 -13.6 °C -16.4 °C 35173.8 hPa NE 3.1 km/h 3.1 km/h 70 % 0 mm
00:05 -13.6 °C -16.4 °C 35173.8 hPa NE 9 km/h 9 km/h 70 % 0 mm
00:10 -13.6 °C -16.4 °C 35173.8 hPa NE 6.3 km/h 6.3 km/h 70 % 0 mm
00:15 -13.6 °C -16.4 °C 35173.8 hPa NE 6 km/h 6 km/h 70 % 0 mm
00:20 -13.5 °C -16.4 °C 35173.8 hPa NE 9 km/h 9 km/h 69 % 0 mm
00:25 -13.5 °C -16.4 °C 35173.8 hPa NE 6.3 km/h 6.3 km/h 69 % 0 mm
00:30 -13.6 °C -16.5 °C 35173.8 hPa NE 9 km/h 9 km/h 69 % 0 mm
00:35 -13.6 °C -16.5 °C 35139.9 hPa NE 8 km/h 8 km/h 69 % 0 mm
00:40 -13.6 °C -16.6 °C 35139.9 hPa NE 6.3 km/h 6.3 km/h 69 % 0 mm
00:45 -13.7 °C -16.6 °C 35139.9 hPa NE 6 km/h 6 km/h 69 % 0 mm
00:50 -13.7 °C -16.7 °C 35139.9 hPa NE 6 km/h 6 km/h 69 % 0 mm
00:55 -13.7 °C -16.7 °C 35139.9 hPa NE 6 km/h 6 km/h 69 % 0 mm
01:00 -13.7 °C -16.6 °C 35173.8 hPa NE 3.1 km/h   70 % 0 mm
01:05 -13.7 °C -16.5 °C 35173.8 hPa NE 6 km/h 6 km/h 70 % 0 mm
01:10 -13.7 °C -16.5 °C 35173.8 hPa NE 3.1 km/h   70 % 0 mm
01:15 -13.7 °C -16.6 °C 35139.9 hPa NE 3.1 km/h 3.1 km/h 70 % 0 mm
01:20 -13.8 °C -16.6 °C 35139.9 hPa Calm     70 % 0 mm
01:25 -13.8 °C -16.6 °C 35139.9 hPa NE 6 km/h 6 km/h 70 % 0 mm
01:30 -13.7 °C -16.5 °C 35139.9 hPa NE 3.1 km/h 3.1 km/h 70 % 0 mm
01:35 -13.7 °C -16.5 °C 35139.9 hPa NE 6 km/h 6 km/h 70 % 0 mm
01:40 -13.7 °C -16.6 °C 35139.9 hPa NE 3.1 km/h 3.1 km/h 70 % 0 mm
01:45 -13.7 °C -16.6 °C 35139.9 hPa NE 3.1 km/h 3.7 km/h 69 % 0 mm
01:50 -13.6 °C -16.5 °C 35139.9 hPa NE 6 km/h 6 km/h 69 % 0 mm
01:55 -13.6 °C -16.5 °C 35139.9 hPa NE 3.1 km/h 3.1 km/h 69 % 0 mm
02:00 -15.2 °C -17.4 °C 35106 hPa NNE 2.6 km/h 5.1 km/h 75 % 0 mm
02:10 -15.2 °C -17.4 °C 35106 hPa NNE 2.6 km/h 2.6 km/h 75 % 0 mm
02:20 -15.1 °C -17.4 °C 35106 hPa NNE 2.6 km/h 5.1 km/h 75 % 0 mm
02:30 -15 °C -17.2 °C 35106 hPa NNE 2.6 km/h 2.6 km/h 76 % 0 mm
02:40 -14.9 °C -17.2 °C 35106 hPa Calm   5.1 km/h 75 % 0 mm
02:50 -14.8 °C -17.1 °C 35106 hPa NNE 2.6 km/h 5.1 km/h 75 % 0 mm
03:00 -14.7 °C -16.9 °C 35106 hPa Calm   2.6 km/h 75 % 0 mm
03:10 -14.5 °C -16.9 °C 35106 hPa NNE 2.6 km/h 5.1 km/h 74 % 0 mm
03:20 -14.3 °C -16.7 °C 35139.9 hPa NNE 5.1 km/h 7.7 km/h 74 % 0 mm
03:30 -14.1 °C -16.4 °C 35139.9 hPa NNE 2.6 km/h 5.1 km/h 74 % 0 mm
03:40 -13.8 °C -16.3 °C 35106 hPa NNE 2.6 km/h 7.7 km/h 73 % 0 mm
03:50 -13.6 °C -16.2 °C 35139.9 hPa NNE 2.6 km/h 5.1 km/h 72 % 0 mm
04:00 -13.3 °C -16 °C 35139.9 hPa NNE 2.6 km/h 2.6 km/h 71 % 0 mm
04:10 -13.1 °C -16 °C 35139.9 hPa NNE 2.6 km/h 5.1 km/h 70 % 0 mm
04:20 -12.9 °C -15.8 °C 35139.9 hPa NNE 2.6 km/h 5.1 km/h 70 % 0 mm
04:30 -12.9 °C -15.9 °C 35139.9 hPa NNE 7.7 km/h 7.7 km/h 69 % 0 mm
04:40 -12.8 °C -15.9 °C 35139.9 hPa NNE 2.6 km/h 5.1 km/h 68 % 0 mm
10:47 -12.6 °C -15.7 °C 35139.9 hPa NNE 6 km/h 6 km/h 68 % 0 mm
10:52 -12.6 °C -15.7 °C 35139.9 hPa NNE 9 km/h 9 km/h 68 % 0 mm
10:57 -12.6 °C -15.8 °C 35139.9 hPa NNE 15 km/h 15 km/h 67 % 0 mm
11:02 -12.6 °C -15.8 °C 35139.9 hPa NNE 11.9 km/h 11.9 km/h 67 % 0 mm
11:07 -12.4 °C -15.7 °C 35139.9 hPa NNE 9 km/h 9 km/h 67 % 0 mm
11:12 -12.4 °C -15.8 °C 35139.9 hPa NNE 6 km/h 6 km/h 66 % 0 mm
11:17 -12.3 °C -15.7 °C 35106 hPa NNE 9.8 km/h 10.3 km/h 66 % 0 mm
11:22 -12.2 °C -15.6 °C 35106 hPa NNE 9.8 km/h 10.3 km/h 66 % 0 mm
11:27 -12 °C -15.5 °C 35106 hPa NNE 6 km/h 6 km/h 65 % 0 mm
11:32 -12 °C -15.5 °C 35139.9 hPa NNE 9 km/h 9 km/h 65 % 0 mm
11:37 -11.9 °C -15.4 °C 35139.9 hPa NNE 9.8 km/h 9.8 km/h 65 % 0 mm
11:42 -11.8 °C -15.4 °C 35139.9 hPa NNE 9 km/h 9 km/h 64 % 0 mm
11:47 -11.8 °C -15.4 °C 35139.9 hPa NNE 9 km/h 9 km/h 64 % 0 mm
11:52 -11.7 °C -15.4 °C 35139.9 hPa NNE 9 km/h 9 km/h 64 % 0 mm
11:57 -11.6 °C -15.2 °C 35139.9 hPa NNE 8 km/h 8 km/h 64 % 0 mm
12:02 -11.7 °C -15.4 °C 35139.9 hPa NNE 11.9 km/h 11.9 km/h 63 % 0 mm
12:07 -11.6 °C -15.3 °C 35139.9 hPa NNE 7.6 km/h 7.6 km/h 63 % 0 mm
12:12 -11.4 °C -15.2 °C 35139.9 hPa NNE 9 km/h 9 km/h 63 % 0 mm
12:17 -11.6 °C -15.4 °C 35072.2 hPa NNE 9 km/h 9 km/h 62 % 0 mm
12:22 -11.5 °C -15.4 °C 35072.2 hPa NNE 6 km/h 6 km/h 62 % 0 mm
12:27 -11.3 °C -15.1 °C 35072.2 hPa NNE 6 km/h 6 km/h 63 % 0 mm
12:32 -11.2 °C -15.2 °C 35072.2 hPa NNE 7.6 km/h 7.6 km/h 62 % 0 mm
12:37 -11.1 °C -15.1 °C 35072.2 hPa NNE 6 km/h 6 km/h 62 % 0 mm
12:42 -11.1 °C -15.2 °C 35072.2 hPa NNE 8.5 km/h 8.5 km/h 61 % 0 mm
12:47 -11 °C -14.9 °C 35072.2 hPa NNE 6 km/h 6 km/h 62 % 0 mm
12:52 -10.8 °C -14.7 °C 35072.2 hPa NNE 6 km/h 6 km/h 62 % 0 mm
12:57 -10.7 °C -14.7 °C 35072.2 hPa NNE 6.8 km/h 6.8 km/h 62 % 0 mm
13:02 -10.7 °C -14.8 °C 35072.2 hPa NNE 11.9 km/h 11.9 km/h 61 % 0 mm
13:07 -10.7 °C -14.8 °C 35072.2 hPa NNE 9 km/h 9 km/h 61 % 0 mm
13:12 -10.7 °C -14.8 °C 35072.2 hPa NNE 6.8 km/h 6.8 km/h 61 % 0 mm
13:17 -10.6 °C -14.6 °C 35038.3 hPa NNE 9 km/h 9 km/h 61 % 0 mm
13:22 -10.6 °C -14.8 °C 35038.3 hPa NNE 11.9 km/h 11.9 km/h 60 % 0 mm
13:27 -10.4 °C -14.7 °C 35038.3 hPa NNE 11.9 km/h 11.9 km/h 60 % 0 mm
13:32 -10.4 °C -14.6 °C 35072.2 hPa NNE 6.3 km/h 7.6 km/h 60 % 0 mm
13:37 -10.3 °C -14.7 °C 35072.2 hPa NNE 11.9 km/h 11.9 km/h 59 % 0 mm
13:42 -10.3 °C -14.7 °C 35072.2 hPa NNE 6.3 km/h 6.3 km/h 59 % 0 mm
13:47 -10.3 °C -14.5 °C 35038.3 hPa NNE 6 km/h 6 km/h 60 % 0 mm
13:52 -10.3 °C -14.7 °C 35038.3 hPa NNE 9 km/h 9 km/h 59 % 0 mm
13:57 -10.2 °C -14.7 °C 35038.3 hPa NNE 9 km/h 9 km/h 58 % 0 mm
14:02 -10.1 °C -14.4 °C 35038.3 hPa NNE 9 km/h 9 km/h 59 % 0 mm
14:07 -9.8 °C -14.1 °C 35038.3 hPa NNE 11.9 km/h 11.9 km/h 60 % 0 mm
14:12 -9.8 °C -14.2 °C 35038.3 hPa NNE 11.9 km/h 11.9 km/h 59 % 0 mm
14:17 -9.8 °C -14.3 °C 35038.3 hPa NNE 6 km/h 6 km/h 58 % 0 mm
14:22 -9.7 °C -14.3 °C 35038.3 hPa NNE 9.3 km/h 9.3 km/h 58 % 0 mm
14:27 -9.7 °C -14.4 °C 35038.3 hPa NNE 9 km/h 9 km/h 57 % 0 mm
14:32 -9.4 °C -13.8 °C 35001.1 hPa NNE 6 km/h 6 km/h 59 % 0 mm
14:37 -9.3 °C -13.7 °C 35001.1 hPa NNE 9.3 km/h 9.3 km/h 59 % 0 mm
14:42 -9.2 °C -13.8 °C 35001.1 hPa NNE 11.9 km/h 11.9 km/h 58 % 0 mm
14:47 -9.2 °C -13.8 °C 35001.1 hPa NNE 16.1 km/h 16.1 km/h 58 % 0 mm
14:52 -9.3 °C -14.1 °C 35001.1 hPa North 15 km/h 15 km/h 56 % 0 mm
14:57 -9 °C -13.7 °C 35001.1 hPa North 11.9 km/h 11.9 km/h 57 % 0 mm
15:02 -9 °C -13.8 °C 35001.1 hPa North 15.3 km/h 15.3 km/h 56 % 0 mm
15:07 -9 °C -13.8 °C 35001.1 hPa North 15 km/h 15 km/h 56 % 0 mm
15:12 -8.9 °C -13.9 °C 35001.1 hPa North 15 km/h 15 km/h 55 % 0 mm
15:17 -9 °C -13.8 °C 35001.1 hPa North 15 km/h 15 km/h 56 % 0 mm
15:22 -8.8 °C -13.8 °C 35001.1 hPa North 14.5 km/h 14.5 km/h 55 % 0 mm
15:27 -8.7 °C -13.8 °C 35001.1 hPa North 15.6 km/h 15.6 km/h 55 % 0 mm
15:32 -8.7 °C -13.8 °C 35001.1 hPa North 15 km/h 15 km/h 55 % 0 mm
15:37 -8.7 °C -13.8 °C 35001.1 hPa North 11.9 km/h 11.9 km/h 55 % 0 mm
15:42 -8.8 °C -13.9 °C 35001.1 hPa North 17.9 km/h 17.9 km/h 54 % 0 mm
15:47 -8.7 °C -13.8 °C 35001.1 hPa North 9 km/h 9 km/h 55 % 0 mm
15:52 -8.6 °C -13.8 °C 35001.1 hPa North 9 km/h 9 km/h 54 % 0 mm
15:57 -8.5 °C -13.6 °C 35001.1 hPa North 9 km/h 9 km/h 55 % 0 mm
16:02 -8.4 °C -13.7 °C 35001.1 hPa North 15 km/h 15 km/h 54 % 0 mm
16:07 -8.5 °C -13.7 °C 35001.1 hPa North 11.9 km/h 11.9 km/h 54 % 0 mm
16:12 -8.5 °C -13.7 °C 35001.1 hPa North 11.9 km/h 11.9 km/h 54 % 0 mm
16:17 -8.5 °C -13.7 °C 35001.1 hPa North 9 km/h 9 km/h 54 % 0 mm
16:22 -8.6 °C -13.9 °C 35001.1 hPa North 15 km/h 15 km/h 53 % 0 mm
16:27 -8.6 °C -13.9 °C 35001.1 hPa North 9 km/h 9 km/h 53 % 0 mm
16:32 -8.6 °C -13.9 °C 35001.1 hPa North 11.9 km/h 11.9 km/h 53 % 0 mm
16:37 -8.6 °C -13.9 °C 35001.1 hPa North 6 km/h 6 km/h 53 % 0 mm
16:42 -8.7 °C -14 °C 35001.1 hPa North 9 km/h 9 km/h 53 % 0 mm
16:47 -8.7 °C -14.1 °C 35001.1 hPa North 14.5 km/h 14.5 km/h 53 % 0 mm
16:52 -8.8 °C -14.1 °C 35001.1 hPa North 11.9 km/h 11.9 km/h 53 % 0 mm
16:57 -8.8 °C -14.2 °C 35001.1 hPa North 11.9 km/h 11.9 km/h 53 % 0 mm
17:02 -8.9 °C -14.3 °C 35001.1 hPa North 9 km/h 9 km/h 52 % 0 mm
17:07 -8.9 °C -14.4 °C 35001.1 hPa North 15 km/h 15 km/h 52 % 0 mm
17:12 -9.1 °C -14.6 °C 35001.1 hPa North 11.9 km/h 11.9 km/h 52 % 0 mm
17:17 -9.2 °C -14.6 °C 34967.2 hPa North 11.9 km/h 11.9 km/h 52 % 0 mm
17:22 -9.2 °C -14.7 °C 34967.2 hPa North 6.3 km/h 6.3 km/h 52 % 0 mm
17:27 -9.3 °C -14.7 °C 34967.2 hPa North 6 km/h 6 km/h 52 % 0 mm
17:32 -9.4 °C -14.8 °C 35001.1 hPa North 6.8 km/h 6.8 km/h 52 % 0 mm
17:37 -9.6 °C -14.9 °C 35001.1 hPa North 4.2 km/h 4.2 km/h 52 % 0 mm
17:42 -9.7 °C -15.1 °C 35001.1 hPa North 11.9 km/h 11.9 km/h 52 % 0 mm
17:47 -9.9 °C -15.3 °C 35001.1 hPa North 6 km/h 6 km/h 52 % 0 mm
17:52 -10.1 °C -15.4 °C 35001.1 hPa North 6 km/h 6 km/h 52 % 0 mm
17:57 -10.3 °C -15.7 °C 35001.1 hPa North 6 km/h 6 km/h 52 % 0 mm
18:02 -10.4 °C -15.7 °C 35001.1 hPa North 6 km/h 6 km/h 53 % 0 mm
18:07 -10.6 °C -15.8 °C 35001.1 hPa North 6 km/h 6 km/h 53 % 0 mm
18:12 -10.7 °C -15.9 °C 35001.1 hPa North 6.3 km/h 6.8 km/h 53 % 0 mm
18:17 -10.8 °C -15.8 °C 35001.1 hPa North 6 km/h 6 km/h 54 % 0 mm
18:22 -10.9 °C -16 °C 35001.1 hPa North 6 km/h 6 km/h 54 % 0 mm
18:27 -11 °C -16 °C 35001.1 hPa North 6 km/h 6 km/h 54 % 0 mm
18:32 -11.1 °C -16 °C 35001.1 hPa North 6 km/h 6 km/h 55 % 0 mm
18:37 -11.2 °C -16.1 °C 35001.1 hPa North 9 km/h 9 km/h 55 % 0 mm
18:42 -11.2 °C -16.1 °C 35001.1 hPa North 6 km/h 6 km/h 55 % 0 mm
18:47 -11.3 °C -16 °C 35001.1 hPa North 6.3 km/h 6.3 km/h 56 % 0 mm
18:52 -11.3 °C -16 °C 35001.1 hPa North 6 km/h 6 km/h 56 % 0 mm
18:57 -11.3 °C -15.9 °C 35001.1 hPa North 6 km/h 6 km/h 57 % 0 mm
19:02 -11.3 °C -15.9 °C 35001.1 hPa North 6 km/h 6 km/h 57 % 0 mm
19:07 -11.3 °C -15.8 °C 35001.1 hPa North 7.6 km/h 7.6 km/h 58 % 0 mm
19:12 -11.4 °C -15.8 °C 35001.1 hPa North 6 km/h 6 km/h 58 % 0 mm
19:17 -11.4 °C -15.9 °C 35001.1 hPa North 6 km/h 6 km/h 58 % 0 mm
19:22 -11.5 °C -15.9 °C 35001.1 hPa North 6 km/h 6 km/h 58 % 0 mm
19:27 -11.6 °C -16 °C 35001.1 hPa North 6.3 km/h 6.3 km/h 58 % 0 mm
19:32 -11.6 °C -16 °C 35001.1 hPa North 6 km/h 6 km/h 58 % 0 mm
19:37 -11.6 °C -16 °C 35001.1 hPa North 6 km/h   58 % 0 mm
19:42 -11.7 °C -16.2 °C 35001.1 hPa Calm     58 % 0 mm
19:47 -11.8 °C -16.2 °C 34967.2 hPa Calm     58 % 0 mm
19:52 -11.8 °C -16.1 °C 34967.2 hPa Calm     59 % 0 mm
19:57 -11.9 °C -16.2 °C 34967.2 hPa North 6 km/h   59 % 0 mm
20:02 -12.2 °C -16.4 °C 35001.1 hPa North 6 km/h 6 km/h 59 % 0 mm
20:07 -12.2 °C -16.3 °C 35001.1 hPa North 3.1 km/h 3.1 km/h 60 % 0 mm
20:12 -12.3 °C -16.4 °C 35001.1 hPa Calm     60 % 0 mm
20:17 -12.3 °C -16.4 °C 35001.1 hPa North 6 km/h 6 km/h 60 % 0 mm
20:22 -12.3 °C -16.4 °C 35001.1 hPa North 3.1 km/h 3.1 km/h 60 % 0 mm
20:27 -12.4 °C -16.3 °C 35001.1 hPa North 5.1 km/h 5.1 km/h 61 % 0 mm
20:32 -12.4 °C -16.4 °C 35001.1 hPa North 3.7 km/h 3.7 km/h 61 % 0 mm
20:37 -12.4 °C -16.4 °C 35001.1 hPa North 3.1 km/h 3.1 km/h 61 % 0 mm
20:42 -12.5 °C -16.5 °C 35001.1 hPa Calm     61 % 0 mm
20:47 -12.5 °C -16.5 °C 35001.1 hPa North 3.1 km/h   61 % 0 mm
20:52 -12.6 °C -16.4 °C 35001.1 hPa Calm     62 % 0 mm
20:57 -12.6 °C -16.4 °C 35001.1 hPa Calm     62 % 0 mm
21:02 -12.7 °C -16.5 °C 35001.1 hPa Calm     62 % 0 mm
21:07 -12.7 °C -16.6 °C 35001.1 hPa North 3.1 km/h   62 % 0 mm
21:12 -12.8 °C -16.5 °C 35001.1 hPa Calm     63 % 0 mm
21:17 -12.8 °C -16.5 °C 35001.1 hPa Calm     63 % 0 mm
21:22 -12.8 °C -16.6 °C 35001.1 hPa North 6 km/h 6 km/h 63 % 0 mm
21:27 -12.8 °C -16.6 °C 35001.1 hPa North 3.1 km/h   63 % 0 mm
21:32 -12.9 °C -16.6 °C 34967.2 hPa Calm     63 % 0 mm
21:37 -12.9 °C -16.6 °C 34967.2 hPa North 2.3 km/h   63 % 0 mm
21:42 -12.9 °C -16.6 °C 34967.2 hPa North 6 km/h 6 km/h 63 % 0 mm
21:47 -13.1 °C -16.8 °C 34967.2 hPa North 6 km/h 6 km/h 63 % 0 mm
21:52 -13.2 °C -16.8 °C 34967.2 hPa North 6.3 km/h 6.3 km/h 63 % 0 mm
21:55 -15.2 °C -17.6 °C 34946.9 hPa Calm   2.6 km/h 74 % 0 mm
21:57 -13.2 °C -16.8 °C 34967.2 hPa North 3.1 km/h   64 % 0 mm
22:02 -13.3 °C -16.9 °C 35001.1 hPa North 6 km/h 6 km/h 64 % 0 mm
22:05 -15.3 °C -17.6 °C 34946.9 hPa Calm   5.1 km/h 75 % 0 mm
22:07 -13.4 °C -16.9 °C 35001.1 hPa North 6.3 km/h 6.3 km/h 64 % 0 mm
22:12 -13.3 °C -16.9 °C 35001.1 hPa North 3.1 km/h 3.7 km/h 64 % 0 mm
22:15 -15.3 °C -17.6 °C 34946.9 hPa Calm   2.6 km/h 75 % 0 mm
22:17 -13.3 °C -16.9 °C 35001.1 hPa Calm     64 % 0 mm
22:22 -13.3 °C -16.9 °C 35001.1 hPa North 3.1 km/h 3.1 km/h 64 % 0 mm
22:25 -15.3 °C -17.4 °C 34946.9 hPa Calm     76 % 0 mm
22:27 -13.3 °C -16.7 °C 35001.1 hPa Calm     65 % 0 mm
22:32 -13.2 °C -16.8 °C 35001.1 hPa North 5.6 km/h 5.6 km/h 64 % 0 mm
22:35 -15.3 °C -17.4 °C 34946.9 hPa Calm     76 % 0 mm
22:37 -13.2 °C -16.8 °C 35001.1 hPa North 3.1 km/h 3.1 km/h 64 % 0 mm
22:42 -13.2 °C -16.6 °C 35001.1 hPa North 3.1 km/h 3.1 km/h 65 % 0 mm
22:45 -15.3 °C -17.4 °C 34946.9 hPa Calm     76 % 0 mm
22:47 -13.2 °C -16.6 °C 35001.1 hPa North 3.1 km/h 3.1 km/h 65 % 0 mm
22:52 -13.2 °C -16.7 °C 35001.1 hPa North 3.1 km/h 3.1 km/h 65 % 0 mm
22:55 -15.3 °C -17.4 °C 34899.5 hPa Calm   2.6 km/h 76 % 0 mm
22:57 -13.3 °C -16.7 °C 35001.1 hPa North 3.1 km/h 3.1 km/h 65 % 0 mm
23:02 -13.3 °C -16.8 °C 35001.1 hPa North 3.1 km/h   65 % 0 mm
23:05 -15.3 °C -17.4 °C 34946.9 hPa Calm     76 % 0 mm
23:07 -13.3 °C -16.8 °C 35001.1 hPa Calm     65 % 0 mm
23:12 -13.4 °C -16.8 °C 35001.1 hPa Calm     65 % 0 mm
23:15 -15.4 °C -17.4 °C 34946.9 hPa Calm     77 % 0 mm
23:17 -13.4 °C -16.8 °C 35001.1 hPa North 6.3 km/h 6.3 km/h 65 % 0 mm
23:22 -13.5 °C -16.8 °C 35001.1 hPa North 3.1 km/h   66 % 0 mm
23:25 -15.6 °C -17.7 °C 34967.2 hPa Calm   2.6 km/h 76 % 0 mm
23:27 -13.5 °C -16.9 °C 35001.1 hPa North 6.3 km/h 6.3 km/h 65 % 0 mm
23:32 -13.4 °C -16.8 °C 35001.1 hPa North 3.1 km/h 3.1 km/h 65 % 0 mm
23:35 -15.6 °C -17.6 °C 34899.5 hPa Calm   5.1 km/h 77 % 0 mm
23:37 -13.4 °C -16.7 °C 35001.1 hPa Calm     66 % 0 mm
23:42 -13.4 °C -16.8 °C 35001.1 hPa North 4.2 km/h 4.2 km/h 65 % 0 mm
23:45 -15.6 °C -17.7 °C 34899.5 hPa Calm     77 % 0 mm
23:47 -13.4 °C -16.8 °C 35001.1 hPa North 3.7 km/h 3.7 km/h 66 % 0 mm
23:52 -13.4 °C -16.8 °C 35001.1 hPa North 6 km/h 6 km/h 66 % 0 mm
23:55 -15.7 °C -17.7 °C 34899.5 hPa Calm     77 % 0 mm
23:57 -13.4 °C -16.7 °C 35001.1 hPa North 3.1 km/h   66 % 0 mm
Meteo Sesrovires
Elogis d' Weather Underground - 3.5 mb

Guio original per  Jim McMurry - jmcmurry@mwt.net Adaptat per a la plantilla per  Wim van der Kuil - Leuven-Template.eu

Trobareu la nostra informacio del temps tambe a:

Weather Underground

AWEKAS